Terminal Aerodrome Forecast
Issued by NWS

Home | Current Version | Previous Version | Text Only | Print | Product List | Glossary On
Versions: 1 2 3 4 5 6 7 8 9 10 11 12 13 14 15 16 17 18
945
FTUS41 KCAR 242023 AAA
TAFFVE
TAF AMD
KFVE 242023Z 2420/2518 07012G24KT 1SM -SNPL OVC009 WS020/09040KT
     FM250200 07011KT 2SM -PL OVC007 WS020/09040KT
     FM250600 07010KT 2SM -PL OVC007 WS020/09040KT
     FM251200 06010KT 1SM -FZRAPL OVC007=

USA.gov is the U.S. government's official web portal to all federal, state and local government web resources and services.